createdAt,value
2023-01-06T00:00:13.471Z,0
2023-01-06T00:01:29.768Z,0
2023-01-06T00:02:46.057Z,0
2023-01-06T00:04:01.373Z,0
2023-01-06T00:05:17.659Z,0
2023-01-06T00:06:33.960Z,0
2023-01-06T00:07:50.247Z,0
2023-01-06T00:09:06.544Z,0
2023-01-06T00:10:22.849Z,0
2023-01-06T00:11:39.149Z,0
2023-01-06T00:12:55.427Z,0
2023-01-06T00:14:11.713Z,0
2023-01-06T00:15:28.027Z,0
2023-01-06T00:16:44.297Z,0
2023-01-06T00:18:00.600Z,0
2023-01-06T00:19:16.892Z,0
2023-01-06T00:20:32.215Z,0
2023-01-06T00:21:48.493Z,0
2023-01-06T00:23:04.783Z,0
2023-01-06T00:24:21.085Z,0
2023-01-06T00:25:37.388Z,0
2023-01-06T00:26:53.669Z,0
2023-01-06T00:28:09.972Z,0
2023-01-06T00:29:26.268Z,0
2023-01-06T00:30:42.567Z,0
2023-01-06T00:31:58.852Z,0
2023-01-06T00:33:15.142Z,0
2023-01-06T00:34:31.442Z,0
2023-01-06T00:35:47.722Z,0
2023-01-06T00:37:03.037Z,0
2023-01-06T00:38:19.342Z,0
2023-01-06T00:39:35.636Z,0
2023-01-06T00:40:51.936Z,0
2023-01-06T00:42:08.221Z,0
2023-01-06T00:43:23.535Z,0
2023-01-06T00:44:39.831Z,0
2023-01-06T00:45:56.124Z,0
2023-01-06T00:47:12.404Z,0
2023-01-06T00:48:28.717Z,0
2023-01-06T00:49:45.002Z,0
2023-01-06T00:51:01.307Z,0
2023-01-06T00:52:17.592Z,0
2023-01-06T00:53:33.900Z,0
2023-01-06T00:54:50.182Z,0
2023-01-06T00:56:06.470Z,0
2023-01-06T00:57:22.759Z,0
2023-01-06T00:58:39.066Z,0
2023-01-06T00:59:54.374Z,0
2023-01-06T01:01:10.671Z,0
2023-01-06T01:02:26.953Z,0
2023-01-06T01:03:43.239Z,0
2023-01-06T01:04:59.548Z,0
2023-01-06T01:06:15.832Z,0
2023-01-06T01:07:32.144Z,0
2023-01-06T01:08:48.427Z,0
2023-01-06T01:10:04.717Z,0
2023-01-06T01:11:21.011Z,0
2023-01-06T01:12:37.301Z,0
2023-01-06T01:13:53.615Z,0
2023-01-06T01:15:09.900Z,0
2023-01-06T01:16:25.210Z,0
2023-01-06T01:17:41.493Z,0
2023-01-06T01:18:57.794Z,0
2023-01-06T01:20:14.075Z,0
2023-01-06T01:21:30.371Z,0
2023-01-06T01:22:46.670Z,0
2023-01-06T01:24:02.963Z,0
2023-01-06T01:25:19.256Z,0
2023-01-06T01:26:35.564Z,0
2023-01-06T01:27:51.843Z,0
2023-01-06T01:29:08.155Z,0
2023-01-06T01:30:24.440Z,0
2023-01-06T01:31:40.739Z,0
2023-01-06T01:32:56.044Z,0
2023-01-06T01:34:12.330Z,0
2023-01-06T01:35:28.635Z,0
2023-01-06T01:36:44.915Z,0
2023-01-06T01:38:01.210Z,0
2023-01-06T01:39:17.514Z,0
2023-01-06T01:40:33.802Z,0
2023-01-06T01:41:50.098Z,0
2023-01-06T01:43:06.380Z,0
2023-01-06T01:44:22.693Z,0
2023-01-06T01:45:38.986Z,0
2023-01-06T01:46:55.280Z,0
2023-01-06T01:48:11.565Z,0
2023-01-06T01:49:26.873Z,0
2023-01-06T01:50:43.161Z,0
2023-01-06T01:51:59.457Z,0
2023-01-06T01:53:15.764Z,0
2023-01-06T01:54:32.064Z,0
2023-01-06T01:55:48.335Z,0
2023-01-06T01:57:04.637Z,0
2023-01-06T01:58:20.928Z,0
2023-01-06T01:59:37.224Z,0
2023-01-06T02:00:53.514Z,0
2023-01-06T02:02:09.822Z,0
2023-01-06T02:03:26.098Z,0
2023-01-06T02:04:42.396Z,0
2023-01-06T02:05:57.697Z,0
2023-01-06T02:07:14.000Z,0
2023-01-06T02:08:30.294Z,0
2023-01-06T02:09:46.597Z,0
2023-01-06T02:11:02.882Z,0
2023-01-06T02:12:19.183Z,0
2023-01-06T02:13:35.473Z,0
2023-01-06T02:14:51.762Z,0
2023-01-06T02:16:08.047Z,0
2023-01-06T02:17:24.355Z,0
2023-01-06T02:18:40.643Z,0
2023-01-06T02:19:56.938Z,0
2023-01-06T02:21:13.240Z,0
2023-01-06T02:22:28.544Z,0
2023-01-06T02:23:44.837Z,0
2023-01-06T02:25:01.120Z,0
2023-01-06T02:26:17.424Z,0
2023-01-06T02:27:33.707Z,0
2023-01-06T02:28:50.012Z,0
2023-01-06T02:30:06.297Z,0
2023-01-06T02:31:22.596Z,0
2023-01-06T02:32:38.899Z,0
2023-01-06T02:33:55.186Z,0
2023-01-06T02:35:11.477Z,0
2023-01-06T02:36:27.765Z,0
2023-01-06T02:37:44.061Z,0
2023-01-06T02:38:59.386Z,0
2023-01-06T02:40:15.689Z,0
2023-01-06T02:41:31.959Z,0
2023-01-06T02:42:48.271Z,0
2023-01-06T02:44:04.545Z,0
2023-01-06T02:45:20.857Z,0
2023-01-06T02:46:37.128Z,0
2023-01-06T02:47:53.432Z,0
2023-01-06T02:49:09.726Z,0
2023-01-06T02:50:26.024Z,0
2023-01-06T02:51:42.314Z,0
2023-01-06T02:52:58.597Z,0
2023-01-06T02:54:14.905Z,0
2023-01-06T02:55:30.218Z,0
2023-01-06T02:56:46.510Z,0
2023-01-06T02:58:02.800Z,0
2023-01-06T02:59:19.096Z,0
2023-01-06T03:00:35.391Z,0
2023-01-06T03:01:51.671Z,0
2023-01-06T03:03:07.986Z,0
2023-01-06T03:04:24.266Z,0
2023-01-06T03:05:40.549Z,0
2023-01-06T03:06:56.862Z,0
2023-01-06T03:08:13.146Z,0
2023-01-06T03:09:29.448Z,0
2023-01-06T03:10:45.751Z,0
2023-01-06T03:12:01.054Z,0
2023-01-06T03:13:17.342Z,0
2023-01-06T03:14:33.626Z,0
2023-01-06T03:15:49.925Z,0
2023-01-06T03:17:06.218Z,0
2023-01-06T03:18:22.516Z,0
2023-01-06T03:19:38.806Z,0
2023-01-06T03:20:55.101Z,0
2023-01-06T03:22:11.396Z,0
2023-01-06T03:23:27.688Z,0
2023-01-06T03:24:43.983Z,0
2023-01-06T03:26:00.281Z,0
2023-01-06T03:27:16.568Z,0
2023-01-06T03:28:31.883Z,0
2023-01-06T03:29:48.174Z,0
2023-01-06T03:31:04.476Z,0
2023-01-06T03:32:20.770Z,0
2023-01-06T03:33:37.072Z,0
2023-01-06T03:34:53.355Z,0
2023-01-06T03:36:09.650Z,0
2023-01-06T03:37:25.942Z,0
2023-01-06T03:38:42.229Z,0
2023-01-06T03:39:58.533Z,0
2023-01-06T03:41:14.815Z,0
2023-01-06T03:42:31.111Z,0
2023-01-06T03:43:47.421Z,0
2023-01-06T03:45:02.722Z,0
2023-01-06T03:46:19.019Z,0
2023-01-06T03:47:35.301Z,0
2023-01-06T03:48:51.594Z,0
2023-01-06T03:50:07.891Z,0
2023-01-06T03:51:24.184Z,0
2023-01-06T03:52:40.466Z,0
2023-01-06T03:53:56.771Z,0
2023-01-06T03:55:13.068Z,0
2023-01-06T03:56:29.370Z,0
2023-01-06T03:57:45.654Z,0
2023-01-06T03:59:01.945Z,0
2023-01-06T04:00:18.227Z,0
2023-01-06T04:01:33.547Z,0
2023-01-06T04:02:49.843Z,0
2023-01-06T04:04:06.136Z,0
2023-01-06T04:05:22.434Z,0
2023-01-06T04:06:38.735Z,0
2023-01-06T04:07:55.015Z,0
2023-01-06T04:09:11.317Z,0
2023-01-06T04:10:27.593Z,0
2023-01-06T04:11:43.914Z,0
2023-01-06T04:13:00.186Z,0
2023-01-06T04:14:16.473Z,0
2023-01-06T04:15:32.784Z,0
2023-01-06T04:16:49.070Z,0
2023-01-06T04:18:04.374Z,0
2023-01-06T04:19:20.688Z,0
2023-01-06T04:20:36.979Z,0
2023-01-06T04:21:53.277Z,0
2023-01-06T04:23:09.548Z,0
2023-01-06T04:24:25.840Z,0
2023-01-06T04:25:42.152Z,0
2023-01-06T04:26:58.438Z,0
2023-01-06T04:28:14.744Z,0
2023-01-06T04:29:31.028Z,0
2023-01-06T04:30:47.304Z,0
2023-01-06T04:32:03.602Z,0
2023-01-06T04:33:19.901Z,0
2023-01-06T04:34:35.208Z,0
2023-01-06T04:35:51.498Z,0
2023-01-06T04:37:07.806Z,0
2023-01-06T04:38:24.082Z,0
2023-01-06T04:39:40.393Z,0
2023-01-06T04:40:56.680Z,0
2023-01-06T04:42:12.988Z,0
2023-01-06T04:43:29.271Z,0
2023-01-06T04:44:45.556Z,0
2023-01-06T04:46:01.854Z,0
2023-01-06T04:47:18.150Z,0
2023-01-06T04:48:34.429Z,0
2023-01-06T04:49:50.744Z,0
2023-01-06T04:51:06.062Z,0
2023-01-06T04:52:22.355Z,0
2023-01-06T04:53:38.632Z,0
2023-01-06T04:54:54.935Z,0
2023-01-06T04:56:11.210Z,0
2023-01-06T04:57:27.518Z,0
2023-01-06T04:58:43.922Z,0
2023-01-06T05:00:00.226Z,0
2023-01-06T05:01:16.508Z,0
2023-01-06T05:02:32.818Z,0
2023-01-06T05:03:49.102Z,0
2023-01-06T05:05:05.404Z,0
2023-01-06T05:06:21.697Z,0
2023-01-06T05:07:37.999Z,0
2023-01-06T05:08:54.293Z,0
2023-01-06T05:10:10.590Z,0
2023-01-06T05:11:26.861Z,0
2023-01-06T05:12:43.167Z,0
2023-01-06T05:13:59.450Z,0
2023-01-06T05:15:14.763Z,0
2023-01-06T05:16:31.057Z,0
2023-01-06T05:17:47.360Z,0
2023-01-06T05:19:03.638Z,0
2023-01-06T05:20:19.961Z,0
2023-01-06T05:21:36.224Z,0
2023-01-06T05:22:52.526Z,0
2023-01-06T05:24:08.811Z,0
2023-01-06T05:25:25.118Z,0
2023-01-06T05:26:41.409Z,0
2023-01-06T05:27:57.703Z,0
2023-01-06T05:29:13.996Z,0
2023-01-06T05:30:30.296Z,0
2023-01-06T05:31:45.587Z,0
2023-01-06T05:33:01.880Z,0
2023-01-06T05:34:18.190Z,0
2023-01-06T05:35:34.485Z,0
2023-01-06T05:36:50.759Z,0
2023-01-06T05:38:07.059Z,0
2023-01-06T05:39:23.362Z,0
2023-01-06T05:40:39.657Z,0
2023-01-06T05:41:55.939Z,0
2023-01-06T05:43:12.247Z,0
2023-01-06T05:44:28.521Z,0
2023-01-06T05:45:44.821Z,0
2023-01-06T05:47:01.120Z,0
2023-01-06T05:48:16.420Z,0
2023-01-06T05:49:32.723Z,0
2023-01-06T05:50:49.018Z,0
2023-01-06T05:52:05.300Z,0
2023-01-06T05:53:21.600Z,0
2023-01-06T05:54:37.900Z,0
2023-01-06T05:55:54.184Z,0
2023-01-06T05:57:10.478Z,0
2023-01-06T05:58:26.773Z,0
2023-01-06T05:59:43.072Z,0
2023-01-06T06:00:59.364Z,0
2023-01-06T06:02:15.656Z,0
2023-01-06T06:03:31.957Z,0
2023-01-06T06:04:47.268Z,0
2023-01-06T06:06:03.554Z,0
2023-01-06T06:07:19.847Z,0
2023-01-06T06:08:36.144Z,0
2023-01-06T06:09:52.434Z,0
2023-01-06T06:11:08.726Z,0
2023-01-06T06:12:25.019Z,0
2023-01-06T06:13:41.308Z,0
2023-01-06T06:14:57.614Z,0
2023-01-06T06:16:13.912Z,0
2023-01-06T06:17:30.201Z,0
2023-01-06T06:18:46.484Z,0
2023-01-06T06:20:02.795Z,0
2023-01-06T06:21:18.088Z,0
2023-01-06T06:22:34.381Z,0
2023-01-06T06:23:50.672Z,0
2023-01-06T06:25:06.970Z,0
2023-01-06T06:26:23.268Z,0
2023-01-06T06:27:39.565Z,0
2023-01-06T06:28:55.846Z,0
2023-01-06T06:30:12.141Z,0
2023-01-06T06:31:28.442Z,0
2023-01-06T06:32:44.740Z,0
2023-01-06T06:34:01.021Z,0
2023-01-06T06:35:17.315Z,0
2023-01-06T06:36:33.608Z,0
2023-01-06T06:37:48.930Z,0
2023-01-06T06:39:05.218Z,0
2023-01-06T06:40:21.518Z,0
2023-01-06T06:41:37.805Z,0
2023-01-06T06:42:54.042Z,1
2023-01-06T06:44:10.000Z,1
2023-01-06T06:45:26.523Z,1
2023-01-06T06:46:42.751Z,2
2023-01-06T06:47:59.012Z,2
2023-01-06T06:49:15.240Z,1
2023-01-06T06:50:31.494Z,2
2023-01-06T06:51:47.751Z,1
2023-01-06T06:53:03.977Z,1
2023-01-06T06:54:19.230Z,3
2023-01-06T06:55:35.476Z,4
2023-01-06T06:56:51.728Z,7
2023-01-06T06:58:07.959Z,6
2023-01-06T06:59:24.190Z,13
2023-01-06T07:00:40.439Z,11
2023-01-06T07:01:56.668Z,14
2023-01-06T07:03:12.929Z,19
2023-01-06T07:04:29.151Z,20
2023-01-06T07:05:45.390Z,21
2023-01-06T07:07:01.627Z,22
2023-01-06T07:08:17.861Z,27
2023-01-06T07:09:34.118Z,33
2023-01-06T07:10:49.375Z,41
2023-01-06T07:12:05.614Z,52
2023-01-06T07:13:21.858Z,67
2023-01-06T07:14:38.083Z,77
2023-01-06T07:15:54.323Z,81
2023-01-06T07:17:10.572Z,80
2023-01-06T07:18:26.799Z,73
2023-01-06T07:19:43.052Z,64
2023-01-06T07:20:59.291Z,62
2023-01-06T07:22:15.520Z,65
2023-01-06T07:23:31.767Z,60
2023-01-06T07:24:48.000Z,61
2023-01-06T07:26:04.258Z,63
2023-01-06T07:27:19.492Z,59
2023-01-06T07:28:35.753Z,74
2023-01-06T07:29:51.967Z,102
2023-01-06T07:31:08.221Z,110
2023-01-06T07:32:24.458Z,118
2023-01-06T07:33:40.695Z,123
2023-01-06T07:34:56.943Z,126
2023-01-06T07:36:13.177Z,136
2023-01-06T07:37:29.412Z,151
2023-01-06T07:38:45.655Z,176
2023-01-06T07:40:01.897Z,196
2023-01-06T07:41:18.125Z,215
2023-01-06T07:42:34.383Z,227
2023-01-06T07:43:49.633Z,235
2023-01-06T07:45:05.867Z,252
2023-01-06T07:46:22.112Z,280
2023-01-06T07:47:38.342Z,294
2023-01-06T07:48:54.595Z,311
2023-01-06T07:50:10.835Z,325
2023-01-06T07:51:27.058Z,335
2023-01-06T07:52:43.308Z,346
2023-01-06T07:53:59.541Z,349
2023-01-06T07:55:15.774Z,341
2023-01-06T07:56:32.035Z,327
2023-01-06T07:57:48.263Z,310
2023-01-06T07:59:04.500Z,335
2023-01-06T08:00:19.756Z,332
2023-01-06T08:01:35.997Z,344
2023-01-06T08:02:52.239Z,376
2023-01-06T08:04:08.476Z,393
2023-01-06T08:05:24.726Z,374
2023-01-06T08:06:40.957Z,436
2023-01-06T08:07:57.199Z,419
2023-01-06T08:09:13.442Z,498
2023-01-06T08:10:29.670Z,531
2023-01-06T08:11:45.911Z,511
2023-01-06T08:13:02.152Z,374
2023-01-06T08:14:18.382Z,326
2023-01-06T08:15:34.641Z,313
2023-01-06T08:16:49.877Z,402
2023-01-06T08:18:06.134Z,451
2023-01-06T08:19:22.367Z,510
2023-01-06T08:20:38.609Z,413
2023-01-06T08:21:54.841Z,343
2023-01-06T08:23:11.085Z,440
2023-01-06T08:24:27.322Z,393
2023-01-06T08:25:43.559Z,379
2023-01-06T08:26:59.801Z,245
2023-01-06T08:28:16.041Z,179
2023-01-06T08:29:32.281Z,298
2023-01-06T08:30:48.524Z,326
2023-01-06T08:32:04.758Z,285
2023-01-06T08:33:20.011Z,564
2023-01-06T08:34:36.258Z,597
2023-01-06T08:35:52.502Z,478
2023-01-06T08:37:08.736Z,510
2023-01-06T08:38:24.968Z,598
2023-01-06T08:39:41.211Z,451
2023-01-06T08:40:57.459Z,634
2023-01-06T08:42:13.696Z,626
2023-01-06T08:43:29.950Z,454
2023-01-06T08:44:46.187Z,333
2023-01-06T08:46:02.421Z,467
2023-01-06T08:47:18.647Z,415
2023-01-06T08:48:34.897Z,303
2023-01-06T08:49:50.146Z,483
2023-01-06T08:51:06.380Z,741
2023-01-06T08:52:22.635Z,694
2023-01-06T08:53:38.867Z,683
2023-01-06T08:54:55.113Z,555
2023-01-06T08:56:11.343Z,458
2023-01-06T08:57:27.578Z,283
2023-01-06T08:58:43.822Z,466
2023-01-06T09:00:00.064Z,789
2023-01-06T09:01:16.292Z,594
2023-01-06T09:02:32.544Z,591
2023-01-06T09:03:48.783Z,621
2023-01-06T09:05:05.024Z,581
2023-01-06T09:06:20.276Z,547
2023-01-06T09:07:36.515Z,547
2023-01-06T09:08:52.753Z,551
2023-01-06T09:10:09.000Z,532
2023-01-06T09:11:25.238Z,548
2023-01-06T09:12:41.467Z,633
2023-01-06T09:13:56.752Z,650
2023-01-06T09:15:12.972Z,638
2023-01-06T09:16:29.220Z,713
2023-01-06T09:17:45.454Z,794
2023-01-06T09:19:01.684Z,850
2023-01-06T09:20:17.938Z,801
2023-01-06T09:21:34.179Z,710
2023-01-06T09:22:50.401Z,720
2023-01-06T09:24:06.659Z,801
2023-01-06T09:25:22.891Z,825
2023-01-06T09:26:39.127Z,798
2023-01-06T09:27:55.369Z,749
2023-01-06T09:29:11.599Z,734
2023-01-06T09:30:26.865Z,895
2023-01-06T09:31:43.108Z,1211
2023-01-06T09:32:59.347Z,1192
2023-01-06T09:34:15.590Z,1060
2023-01-06T09:35:31.814Z,1235
2023-01-06T09:36:48.054Z,1420
2023-01-06T09:38:04.292Z,1421
2023-01-06T09:39:20.532Z,1402
2023-01-06T09:40:36.792Z,1526
2023-01-06T09:41:53.014Z,1526
2023-01-06T09:43:09.248Z,1533
2023-01-06T09:44:25.492Z,1596
2023-01-06T09:45:41.729Z,1414
2023-01-06T09:46:56.993Z,1500
2023-01-06T09:48:13.239Z,1582
2023-01-06T09:49:29.474Z,1642
2023-01-06T09:50:45.708Z,1672
2023-01-06T09:52:01.949Z,1677
2023-01-06T09:53:18.187Z,1656
2023-01-06T09:54:34.433Z,1577
2023-01-06T09:55:50.677Z,1498
2023-01-06T09:57:06.906Z,1375
2023-01-06T09:58:23.154Z,1214
2023-01-06T09:59:39.391Z,986
2023-01-06T10:00:55.625Z,860
2023-01-06T10:02:11.864Z,835
2023-01-06T10:03:27.114Z,849
2023-01-06T10:04:43.360Z,906
2023-01-06T10:05:59.606Z,994
2023-01-06T10:07:15.832Z,1056
2023-01-06T10:08:32.094Z,1103
2023-01-06T10:09:48.320Z,1081
2023-01-06T10:11:04.560Z,1041
2023-01-06T10:12:20.806Z,1018
2023-01-06T10:13:37.040Z,1080
2023-01-06T10:14:53.279Z,1140
2023-01-06T10:16:09.527Z,1200
2023-01-06T10:17:25.749Z,1228
2023-01-06T10:18:41.986Z,1264
2023-01-06T10:19:57.245Z,1274
2023-01-06T10:21:13.500Z,1241
2023-01-06T10:22:29.746Z,1216
2023-01-06T10:23:45.977Z,1255
2023-01-06T10:25:02.212Z,1299
2023-01-06T10:26:18.455Z,1303
2023-01-06T10:27:34.690Z,1274
2023-01-06T10:28:50.921Z,1232
2023-01-06T10:30:07.177Z,1200
2023-01-06T10:31:23.423Z,1233
2023-01-06T10:32:39.656Z,1351
2023-01-06T10:33:55.882Z,1373
2023-01-06T10:35:12.125Z,1271
2023-01-06T10:36:27.395Z,1188
2023-01-06T10:37:43.634Z,1159
2023-01-06T10:38:59.869Z,1126
2023-01-06T10:40:16.107Z,1145
2023-01-06T10:41:32.342Z,1113
2023-01-06T10:42:48.591Z,1142
2023-01-06T10:44:04.818Z,1145
2023-01-06T10:45:21.057Z,1266
2023-01-06T10:46:37.318Z,1426
2023-01-06T10:47:53.538Z,1492
2023-01-06T10:49:09.793Z,1607
2023-01-06T10:50:26.008Z,1463
2023-01-06T10:51:42.266Z,1542
2023-01-06T10:52:57.511Z,1623
2023-01-06T10:54:13.753Z,1601
2023-01-06T10:55:29.994Z,1737
2023-01-06T10:56:46.236Z,1658
2023-01-06T10:58:02.475Z,1624
2023-01-06T10:59:18.708Z,1758
2023-01-06T11:00:34.959Z,1608
2023-01-06T11:01:51.197Z,1669
2023-01-06T11:03:07.427Z,1641
2023-01-06T11:04:23.675Z,1588
2023-01-06T11:05:39.896Z,1646
2023-01-06T11:06:56.160Z,1448
2023-01-06T11:08:12.382Z,1564
2023-01-06T11:09:27.636Z,1605
2023-01-06T11:10:43.882Z,1576
2023-01-06T11:12:00.110Z,1562
2023-01-06T11:13:16.374Z,1711
2023-01-06T11:14:32.607Z,1631
2023-01-06T11:15:48.834Z,1842
2023-01-06T11:17:05.087Z,1698
2023-01-06T11:18:21.326Z,1718
2023-01-06T11:19:37.566Z,1841
2023-01-06T11:20:53.807Z,1976
2023-01-06T11:22:10.037Z,2298
2023-01-06T11:23:26.272Z,2206
2023-01-06T11:24:42.517Z,2125
2023-01-06T11:25:57.779Z,2263
2023-01-06T11:27:14.022Z,2046
2023-01-06T11:28:30.264Z,2143
2023-01-06T11:29:46.500Z,2322
2023-01-06T11:31:02.736Z,2453
2023-01-06T11:32:18.968Z,2328
2023-01-06T11:33:35.228Z,2338
2023-01-06T11:34:51.466Z,2831
2023-01-06T11:36:07.679Z,2764
2023-01-06T11:37:23.947Z,2425
2023-01-06T11:38:40.172Z,2336
2023-01-06T11:39:56.405Z,2210
2023-01-06T11:41:12.641Z,2043
2023-01-06T11:42:27.894Z,2018
2023-01-06T11:43:44.144Z,1966
2023-01-06T11:45:00.371Z,1854
2023-01-06T11:46:16.624Z,1748
2023-01-06T11:47:32.856Z,1685
2023-01-06T11:48:49.119Z,1831
2023-01-06T11:50:05.330Z,1990
2023-01-06T11:51:21.585Z,2149
2023-01-06T11:52:37.832Z,2687
2023-01-06T11:53:54.052Z,2552
2023-01-06T11:55:10.298Z,2568
2023-01-06T11:56:26.527Z,2848
2023-01-06T11:57:42.781Z,2694
2023-01-06T11:58:58.047Z,2337
2023-01-06T12:00:14.275Z,2827
2023-01-06T12:01:30.525Z,2920
2023-01-06T12:02:46.767Z,2997
2023-01-06T12:04:03.008Z,2389
2023-01-06T12:05:19.232Z,2706
2023-01-06T12:06:35.460Z,2624
2023-01-06T12:07:51.726Z,2949
2023-01-06T12:09:07.954Z,3057
2023-01-06T12:10:24.185Z,2814
2023-01-06T12:11:40.430Z,2607
2023-01-06T12:12:56.680Z,2419
2023-01-06T12:14:12.903Z,2245
2023-01-06T12:15:28.179Z,2444
2023-01-06T12:16:44.395Z,2128
2023-01-06T12:18:00.644Z,2120
2023-01-06T12:19:16.881Z,2363
2023-01-06T12:20:33.138Z,2821
2023-01-06T12:21:49.366Z,2784
2023-01-06T12:23:05.604Z,2830
2023-01-06T12:24:21.842Z,3126
2023-01-06T12:25:38.079Z,2799
2023-01-06T12:26:54.331Z,2422
2023-01-06T12:28:10.569Z,2396
2023-01-06T12:29:26.807Z,2424
2023-01-06T12:30:43.037Z,2395
2023-01-06T12:31:58.291Z,2360
2023-01-06T12:33:14.545Z,2211
2023-01-06T12:34:30.777Z,2376
2023-01-06T12:35:47.019Z,2383
2023-01-06T12:37:03.249Z,2517
2023-01-06T12:38:19.508Z,2644
2023-01-06T12:39:35.716Z,2506
2023-01-06T12:40:51.985Z,2430
2023-01-06T12:42:08.207Z,2460
2023-01-06T12:43:24.451Z,2311
2023-01-06T12:44:40.677Z,2191
2023-01-06T12:45:56.942Z,2310
2023-01-06T12:47:13.182Z,2002
2023-01-06T12:48:28.438Z,1980
2023-01-06T12:49:44.657Z,2011
2023-01-06T12:51:00.898Z,1972
2023-01-06T12:52:17.159Z,1773
2023-01-06T12:53:33.381Z,1746
2023-01-06T12:54:49.635Z,1770
2023-01-06T12:56:05.879Z,1862
2023-01-06T12:57:22.108Z,1599
2023-01-06T12:58:38.356Z,1829
2023-01-06T12:59:54.586Z,1724
2023-01-06T13:01:10.833Z,1728
2023-01-06T13:02:27.060Z,1776
2023-01-06T13:03:43.303Z,1816
2023-01-06T13:04:58.543Z,1882
2023-01-06T13:06:14.802Z,1837
2023-01-06T13:07:31.024Z,1736
2023-01-06T13:08:47.273Z,1871
2023-01-06T13:10:03.499Z,1862
2023-01-06T13:11:19.751Z,1842
2023-01-06T13:12:35.996Z,1711
2023-01-06T13:13:52.246Z,1556
2023-01-06T13:15:08.487Z,1445
2023-01-06T13:16:24.701Z,1250
2023-01-06T13:17:40.969Z,1204
2023-01-06T13:18:57.190Z,1162
2023-01-06T13:20:13.441Z,1111
2023-01-06T13:21:28.694Z,993
2023-01-06T13:22:44.942Z,863
2023-01-06T13:24:01.151Z,748
2023-01-06T13:25:17.413Z,638
2023-01-06T13:26:33.653Z,744
2023-01-06T13:27:49.887Z,781
2023-01-06T13:29:05.153Z,876
2023-01-06T13:30:21.394Z,1038
2023-01-06T13:31:37.617Z,1025
2023-01-06T13:32:53.873Z,903
2023-01-06T13:34:10.105Z,786
2023-01-06T13:35:26.349Z,750
2023-01-06T13:36:42.596Z,686
2023-01-06T13:37:58.819Z,630
2023-01-06T13:39:15.063Z,676
2023-01-06T13:40:31.313Z,672
2023-01-06T13:41:47.556Z,626
2023-01-06T13:43:03.770Z,650
2023-01-06T13:44:20.028Z,651
2023-01-06T13:45:35.279Z,684
2023-01-06T13:46:51.529Z,632
2023-01-06T13:48:07.742Z,622
2023-01-06T13:49:23.985Z,624
2023-01-06T13:50:40.237Z,629
2023-01-06T13:51:56.475Z,659
2023-01-06T13:53:12.715Z,701
2023-01-06T13:54:28.970Z,746
2023-01-06T13:55:45.191Z,860
2023-01-06T13:57:01.449Z,904
2023-01-06T13:58:17.658Z,884
2023-01-06T13:59:33.927Z,862
2023-01-06T14:00:50.149Z,897
2023-01-06T14:02:05.414Z,950
2023-01-06T14:03:21.652Z,1013
2023-01-06T14:04:37.873Z,1067
2023-01-06T14:05:54.109Z,1074
2023-01-06T14:07:10.363Z,1015
2023-01-06T14:08:26.606Z,949
2023-01-06T14:09:42.843Z,822
2023-01-06T14:10:59.083Z,823
2023-01-06T14:12:15.330Z,758
2023-01-06T14:13:31.567Z,691
2023-01-06T14:14:47.801Z,671
2023-01-06T14:16:04.040Z,798
2023-01-06T14:17:20.288Z,902
2023-01-06T14:18:35.535Z,906
2023-01-06T14:19:51.782Z,848
2023-01-06T14:21:08.016Z,868
2023-01-06T14:22:24.259Z,863
2023-01-06T14:23:40.496Z,785
2023-01-06T14:24:56.735Z,773
2023-01-06T14:26:12.961Z,882
2023-01-06T14:27:29.212Z,1063
2023-01-06T14:28:45.458Z,998
2023-01-06T14:30:01.704Z,1005
2023-01-06T14:31:17.936Z,933
2023-01-06T14:32:34.157Z,822
2023-01-06T14:33:50.422Z,789
2023-01-06T14:35:05.681Z,702
2023-01-06T14:36:21.918Z,568
2023-01-06T14:37:38.152Z,441
2023-01-06T14:38:54.389Z,355
2023-01-06T14:40:10.622Z,304
2023-01-06T14:41:26.867Z,351
2023-01-06T14:42:43.103Z,398
2023-01-06T14:43:59.341Z,497
2023-01-06T14:45:15.596Z,311
2023-01-06T14:46:31.825Z,373
2023-01-06T14:47:48.072Z,475
2023-01-06T14:49:04.308Z,482
2023-01-06T14:50:20.541Z,440
2023-01-06T14:51:35.808Z,410
2023-01-06T14:52:52.043Z,406
2023-01-06T14:54:08.264Z,387
2023-01-06T14:55:24.529Z,368
2023-01-06T14:56:40.770Z,391
2023-01-06T14:57:56.997Z,363
2023-01-06T14:59:13.252Z,383
2023-01-06T15:00:29.476Z,343
2023-01-06T15:01:45.724Z,290
2023-01-06T15:03:01.969Z,218
2023-01-06T15:04:18.190Z,198
2023-01-06T15:05:34.416Z,210
2023-01-06T15:06:50.672Z,182
2023-01-06T15:08:05.934Z,187
2023-01-06T15:09:22.172Z,172
2023-01-06T15:10:38.415Z,153
2023-01-06T15:11:54.647Z,144
2023-01-06T15:13:10.900Z,120
2023-01-06T15:14:27.134Z,100
2023-01-06T15:15:43.350Z,100
2023-01-06T15:16:59.611Z,86
2023-01-06T15:18:15.848Z,72
2023-01-06T15:19:32.081Z,61
2023-01-06T15:20:48.325Z,49
2023-01-06T15:22:04.572Z,35
2023-01-06T15:23:20.806Z,32
2023-01-06T15:24:36.066Z,19
2023-01-06T15:25:52.297Z,14
2023-01-06T15:27:08.543Z,14
2023-01-06T15:28:24.779Z,9
2023-01-06T15:29:41.024Z,8
2023-01-06T15:30:57.242Z,7
2023-01-06T15:32:13.491Z,9
2023-01-06T15:33:29.716Z,11
2023-01-06T15:34:45.957Z,12
2023-01-06T15:36:02.211Z,9
2023-01-06T15:37:18.443Z,5
2023-01-06T15:38:34.685Z,3
2023-01-06T15:39:50.928Z,3
2023-01-06T15:41:06.183Z,1
2023-01-06T15:42:22.438Z,1
2023-01-06T15:43:38.674Z,2
2023-01-06T15:44:54.925Z,2
2023-01-06T15:46:11.208Z,0
2023-01-06T15:47:27.516Z,0
2023-01-06T15:48:43.746Z,1
2023-01-06T15:49:59.988Z,1
2023-01-06T15:51:16.234Z,1
2023-01-06T15:52:32.465Z,1
2023-01-06T15:53:48.694Z,1
2023-01-06T15:55:04.956Z,1
2023-01-06T15:56:21.233Z,0
2023-01-06T15:57:36.537Z,0
2023-01-06T15:58:52.854Z,0
2023-01-06T16:00:09.146Z,0
2023-01-06T16:01:25.422Z,0
2023-01-06T16:02:41.711Z,0
2023-01-06T16:03:58.014Z,0
2023-01-06T16:05:14.292Z,0
2023-01-06T16:06:30.595Z,0
2023-01-06T16:07:46.893Z,0
2023-01-06T16:09:03.181Z,0
2023-01-06T16:10:19.475Z,0
2023-01-06T16:11:35.779Z,0
2023-01-06T16:12:52.054Z,0
2023-01-06T16:14:07.378Z,0
2023-01-06T16:15:23.657Z,0
2023-01-06T16:16:39.959Z,0
2023-01-06T16:17:56.268Z,0
2023-01-06T16:19:12.552Z,0
2023-01-06T16:20:28.838Z,0
2023-01-06T16:21:45.133Z,0
2023-01-06T16:23:01.428Z,0
2023-01-06T16:24:17.719Z,0
2023-01-06T16:25:34.020Z,0
2023-01-06T16:26:50.302Z,0
2023-01-06T16:28:06.582Z,0
2023-01-06T16:29:22.878Z,0
2023-01-06T16:30:38.213Z,0
2023-01-06T16:31:54.500Z,0
2023-01-06T16:33:10.778Z,0
2023-01-06T16:34:27.082Z,0
2023-01-06T16:35:43.361Z,0
2023-01-06T16:36:59.675Z,0
2023-01-06T16:38:15.978Z,0
2023-01-06T16:39:32.274Z,0
2023-01-06T16:40:48.545Z,0
2023-01-06T16:42:04.848Z,0
2023-01-06T16:43:21.140Z,0
2023-01-06T16:44:37.417Z,0
2023-01-06T16:45:53.722Z,0
2023-01-06T16:47:09.022Z,0
2023-01-06T16:48:25.339Z,0
2023-01-06T16:49:41.625Z,0
2023-01-06T16:50:57.901Z,0
2023-01-06T16:52:14.211Z,0
2023-01-06T16:53:30.519Z,0
2023-01-06T16:54:46.805Z,0
2023-01-06T16:56:03.099Z,0
2023-01-06T16:57:19.388Z,0
2023-01-06T16:58:35.690Z,0
2023-01-06T16:59:51.971Z,0
2023-01-06T17:01:08.267Z,0
2023-01-06T17:02:24.565Z,0
2023-01-06T17:03:39.856Z,0
2023-01-06T17:04:56.143Z,0
2023-01-06T17:06:12.460Z,0
2023-01-06T17:07:28.749Z,0
2023-01-06T17:08:45.038Z,0
2023-01-06T17:10:01.345Z,0
2023-01-06T17:11:17.638Z,0
2023-01-06T17:12:33.907Z,0
2023-01-06T17:13:50.226Z,0
2023-01-06T17:15:06.491Z,0
2023-01-06T17:16:22.816Z,0
2023-01-06T17:17:39.087Z,0
2023-01-06T17:18:55.389Z,0
2023-01-06T17:20:10.712Z,0
2023-01-06T17:21:26.991Z,0
2023-01-06T17:22:43.268Z,0
2023-01-06T17:23:59.579Z,0
2023-01-06T17:25:15.884Z,0
2023-01-06T17:26:32.158Z,0
2023-01-06T17:27:48.462Z,0
2023-01-06T17:30:21.044Z,0
2023-01-06T17:31:37.349Z,0
2023-01-06T17:32:53.628Z,0
2023-01-06T17:34:09.919Z,0
2023-01-06T17:35:26.227Z,0
2023-01-06T17:36:41.528Z,0
2023-01-06T17:37:57.823Z,0
2023-01-06T17:39:14.112Z,0
2023-01-06T17:40:30.410Z,0
2023-01-06T17:41:46.708Z,0
2023-01-06T17:43:03.001Z,0
2023-01-06T17:44:18.322Z,0
2023-01-06T17:45:34.614Z,0
2023-01-06T17:46:50.914Z,0
2023-01-06T17:48:07.210Z,0
2023-01-06T17:49:23.487Z,0
2023-01-06T17:50:39.774Z,0
2023-01-06T17:51:56.070Z,0
2023-01-06T17:53:12.367Z,0
2023-01-06T17:54:28.663Z,0
2023-01-06T17:55:44.948Z,0
2023-01-06T17:57:01.248Z,0
2023-01-06T17:58:17.536Z,0
2023-01-06T17:59:33.842Z,0
2023-01-06T18:00:49.158Z,0
2023-01-06T18:02:05.452Z,0